sensor_id;sensor_type;location;lat;lon;timestamp;P1;durP1;ratioP1;P2;durP2;ratioP2
18265;SDS011;9259;48.194;16.322;2022-07-29T00:00:29;7.97;;;3.90;;
18265;SDS011;9259;48.194;16.322;2022-07-29T00:02:57;6.53;;;4.07;;
18265;SDS011;9259;48.194;16.322;2022-07-29T00:05:25;6.30;;;4.00;;
18265;SDS011;9259;48.194;16.322;2022-07-29T00:07:53;8.95;;;4.35;;
18265;SDS011;9259;48.194;16.322;2022-07-29T00:10:23;6.85;;;4.47;;
18265;SDS011;9259;48.194;16.322;2022-07-29T00:12:51;6.22;;;4.05;;
18265;SDS011;9259;48.194;16.322;2022-07-29T00:15:18;7.68;;;3.80;;
18265;SDS011;9259;48.194;16.322;2022-07-29T00:17:46;7.28;;;3.75;;
18265;SDS011;9259;48.194;16.322;2022-07-29T00:20:14;5.50;;;3.97;;
18265;SDS011;9259;48.194;16.322;2022-07-29T00:22:42;6.90;;;3.88;;
18265;SDS011;9259;48.194;16.322;2022-07-29T00:25:11;8.30;;;4.30;;
18265;SDS011;9259;48.194;16.322;2022-07-29T00:27:41;6.65;;;4.07;;
18265;SDS011;9259;48.194;16.322;2022-07-29T00:30:09;7.22;;;3.45;;
18265;SDS011;9259;48.194;16.322;2022-07-29T00:32:37;8.13;;;3.85;;
18265;SDS011;9259;48.194;16.322;2022-07-29T00:35:06;6.65;;;3.95;;
18265;SDS011;9259;48.194;16.322;2022-07-29T00:37:52;8.48;;;4.10;;
18265;SDS011;9259;48.194;16.322;2022-07-29T00:40:20;12.55;;;3.90;;
18265;SDS011;9259;48.194;16.322;2022-07-29T00:42:50;8.02;;;3.63;;
18265;SDS011;9259;48.194;16.322;2022-07-29T00:45:18;8.40;;;4.40;;
18265;SDS011;9259;48.194;16.322;2022-07-29T00:47:47;8.68;;;4.50;;
18265;SDS011;9259;48.194;16.322;2022-07-29T00:50:18;7.55;;;3.90;;
18265;SDS011;9259;48.194;16.322;2022-07-29T00:52:46;6.07;;;4.03;;
18265;SDS011;9259;48.194;16.322;2022-07-29T00:55:15;8.15;;;4.10;;
18265;SDS011;9259;48.194;16.322;2022-07-29T00:57:44;11.05;;;4.68;;
18265;SDS011;9259;48.194;16.322;2022-07-29T01:00:15;7.43;;;4.40;;
18265;SDS011;9259;48.194;16.322;2022-07-29T01:02:47;7.65;;;4.20;;
18265;SDS011;9259;48.194;16.322;2022-07-29T01:05:16;7.50;;;4.10;;
18265;SDS011;9259;48.194;16.322;2022-07-29T01:07:46;5.30;;;3.67;;
18265;SDS011;9259;48.194;16.322;2022-07-29T01:10:18;8.23;;;4.30;;
18265;SDS011;9259;48.194;16.322;2022-07-29T01:12:48;7.50;;;4.60;;
18265;SDS011;9259;48.194;16.322;2022-07-29T01:15:22;7.28;;;4.10;;
18265;SDS011;9259;48.194;16.322;2022-07-29T01:17:52;8.05;;;4.40;;
18265;SDS011;9259;48.194;16.322;2022-07-29T01:20:31;6.75;;;3.72;;
18265;SDS011;9259;48.194;16.322;2022-07-29T01:23:38;7.30;;;3.92;;
18265;SDS011;9259;48.194;16.322;2022-07-29T01:26:41;10.40;;;4.40;;
18265;SDS011;9259;48.194;16.322;2022-07-29T01:29:18;6.57;;;4.10;;
18265;SDS011;9259;48.194;16.322;2022-07-29T01:31:54;8.70;;;4.60;;
18265;SDS011;9259;48.194;16.322;2022-07-29T01:34:27;8.57;;;4.68;;
18265;SDS011;9259;48.194;16.322;2022-07-29T01:37:05;9.40;;;4.35;;
18265;SDS011;9259;48.194;16.322;2022-07-29T01:39:38;9.40;;;4.25;;
18265;SDS011;9259;48.194;16.322;2022-07-29T01:42:10;7.45;;;4.07;;
18265;SDS011;9259;48.194;16.322;2022-07-29T01:44:48;13.73;;;4.50;;
18265;SDS011;9259;48.194;16.322;2022-07-29T01:47:23;7.80;;;4.18;;
18265;SDS011;9259;48.194;16.322;2022-07-29T01:49:58;8.40;;;4.35;;
18265;SDS011;9259;48.194;16.322;2022-07-29T01:52:31;7.72;;;4.35;;
18265;SDS011;9259;48.194;16.322;2022-07-29T01:55:03;8.90;;;4.60;;
18265;SDS011;9259;48.194;16.322;2022-07-29T01:57:36;7.38;;;4.70;;
18265;SDS011;9259;48.194;16.322;2022-07-29T02:00:09;9.75;;;4.45;;
18265;SDS011;9259;48.194;16.322;2022-07-29T02:02:40;9.70;;;4.30;;
18265;SDS011;9259;48.194;16.322;2022-07-29T02:05:13;8.48;;;4.35;;
18265;SDS011;9259;48.194;16.322;2022-07-29T02:07:44;7.60;;;4.72;;
18265;SDS011;9259;48.194;16.322;2022-07-29T02:10:14;8.00;;;4.30;;
18265;SDS011;9259;48.194;16.322;2022-07-29T02:12:48;8.30;;;4.40;;
18265;SDS011;9259;48.194;16.322;2022-07-29T02:15:19;9.95;;;4.53;;
18265;SDS011;9259;48.194;16.322;2022-07-29T02:17:51;7.32;;;3.90;;
18265;SDS011;9259;48.194;16.322;2022-07-29T02:20:25;11.20;;;4.35;;
18265;SDS011;9259;48.194;16.322;2022-07-29T02:22:54;8.13;;;4.68;;
18265;SDS011;9259;48.194;16.322;2022-07-29T02:25:24;10.52;;;4.85;;
18265;SDS011;9259;48.194;16.322;2022-07-29T02:27:53;9.10;;;4.82;;
18265;SDS011;9259;48.194;16.322;2022-07-29T02:30:23;10.00;;;4.80;;
18265;SDS011;9259;48.194;16.322;2022-07-29T02:32:52;9.15;;;4.70;;
18265;SDS011;9259;48.194;16.322;2022-07-29T02:35:21;9.23;;;4.63;;
18265;SDS011;9259;48.194;16.322;2022-07-29T02:37:50;8.50;;;4.75;;
18265;SDS011;9259;48.194;16.322;2022-07-29T02:40:33;7.53;;;4.47;;
18265;SDS011;9259;48.194;16.322;2022-07-29T02:43:05;8.32;;;4.70;;
18265;SDS011;9259;48.194;16.322;2022-07-29T02:45:35;9.98;;;4.95;;
18265;SDS011;9259;48.194;16.322;2022-07-29T02:48:06;8.82;;;5.03;;
18265;SDS011;9259;48.194;16.322;2022-07-29T02:50:41;7.53;;;4.72;;
18265;SDS011;9259;48.194;16.322;2022-07-29T02:53:22;6.30;;;4.55;;
18265;SDS011;9259;48.194;16.322;2022-07-29T02:55:54;9.70;;;4.93;;
18265;SDS011;9259;48.194;16.322;2022-07-29T02:58:27;7.88;;;4.85;;
18265;SDS011;9259;48.194;16.322;2022-07-29T03:00:59;9.70;;;4.65;;
18265;SDS011;9259;48.194;16.322;2022-07-29T03:03:31;7.07;;;4.80;;
18265;SDS011;9259;48.194;16.322;2022-07-29T03:06:04;7.47;;;5.03;;
18265;SDS011;9259;48.194;16.322;2022-07-29T03:08:34;11.07;;;5.25;;
18265;SDS011;9259;48.194;16.322;2022-07-29T03:11:02;10.73;;;5.43;;
18265;SDS011;9259;48.194;16.322;2022-07-29T03:13:31;8.98;;;5.43;;
18265;SDS011;9259;48.194;16.322;2022-07-29T03:16:00;9.88;;;5.22;;
18265;SDS011;9259;48.194;16.322;2022-07-29T03:18:30;8.07;;;5.28;;
18265;SDS011;9259;48.194;16.322;2022-07-29T03:20:58;7.78;;;5.00;;
18265;SDS011;9259;48.194;16.322;2022-07-29T03:23:26;8.15;;;5.50;;
18265;SDS011;9259;48.194;16.322;2022-07-29T03:25:56;11.25;;;5.57;;
18265;SDS011;9259;48.194;16.322;2022-07-29T03:28:24;10.13;;;5.63;;
18265;SDS011;9259;48.194;16.322;2022-07-29T03:30:53;10.35;;;5.60;;
18265;SDS011;9259;48.194;16.322;2022-07-29T03:33:22;10.45;;;5.13;;
18265;SDS011;9259;48.194;16.322;2022-07-29T03:35:50;7.93;;;5.57;;
18265;SDS011;9259;48.194;16.322;2022-07-29T03:38:18;9.95;;;5.13;;
18265;SDS011;9259;48.194;16.322;2022-07-29T03:40:48;8.52;;;5.55;;
18265;SDS011;9259;48.194;16.322;2022-07-29T03:43:23;10.10;;;5.28;;
18265;SDS011;9259;48.194;16.322;2022-07-29T03:45:54;11.30;;;4.93;;
18265;SDS011;9259;48.194;16.322;2022-07-29T03:48:25;9.63;;;5.13;;
18265;SDS011;9259;48.194;16.322;2022-07-29T03:50:55;12.07;;;5.75;;
18265;SDS011;9259;48.194;16.322;2022-07-29T03:53:28;7.85;;;5.40;;
18265;SDS011;9259;48.194;16.322;2022-07-29T03:55:58;12.52;;;5.18;;
18265;SDS011;9259;48.194;16.322;2022-07-29T03:58:28;12.13;;;6.13;;
18265;SDS011;9259;48.194;16.322;2022-07-29T04:01:01;9.85;;;5.72;;
18265;SDS011;9259;48.194;16.322;2022-07-29T04:03:30;9.57;;;5.65;;
18265;SDS011;9259;48.194;16.322;2022-07-29T04:05:59;10.00;;;6.07;;
18265;SDS011;9259;48.194;16.322;2022-07-29T04:08:29;13.43;;;5.75;;
18265;SDS011;9259;48.194;16.322;2022-07-29T04:10:56;11.85;;;5.88;;
18265;SDS011;9259;48.194;16.322;2022-07-29T04:13:24;7.50;;;5.25;;
18265;SDS011;9259;48.194;16.322;2022-07-29T04:15:52;11.13;;;5.90;;
18265;SDS011;9259;48.194;16.322;2022-07-29T04:18:20;10.20;;;6.03;;
18265;SDS011;9259;48.194;16.322;2022-07-29T04:20:49;9.73;;;5.88;;
18265;SDS011;9259;48.194;16.322;2022-07-29T04:23:21;8.95;;;5.90;;
18265;SDS011;9259;48.194;16.322;2022-07-29T04:25:48;11.27;;;6.25;;
18265;SDS011;9259;48.194;16.322;2022-07-29T04:28:16;10.65;;;6.25;;
18265;SDS011;9259;48.194;16.322;2022-07-29T04:30:44;11.48;;;6.68;;
18265;SDS011;9259;48.194;16.322;2022-07-29T04:33:12;8.98;;;5.78;;
18265;SDS011;9259;48.194;16.322;2022-07-29T04:35:40;10.30;;;6.50;;
18265;SDS011;9259;48.194;16.322;2022-07-29T04:38:09;9.52;;;5.70;;
18265;SDS011;9259;48.194;16.322;2022-07-29T04:40:37;11.77;;;6.35;;
18265;SDS011;9259;48.194;16.322;2022-07-29T04:43:05;7.72;;;5.63;;
18265;SDS011;9259;48.194;16.322;2022-07-29T04:45:33;11.30;;;5.85;;
18265;SDS011;9259;48.194;16.322;2022-07-29T04:48:00;10.95;;;5.80;;
18265;SDS011;9259;48.194;16.322;2022-07-29T04:50:28;8.88;;;5.57;;
18265;SDS011;9259;48.194;16.322;2022-07-29T04:52:56;12.95;;;5.65;;
18265;SDS011;9259;48.194;16.322;2022-07-29T04:55:25;12.38;;;5.65;;
18265;SDS011;9259;48.194;16.322;2022-07-29T04:57:53;12.73;;;6.30;;
18265;SDS011;9259;48.194;16.322;2022-07-29T05:00:21;12.57;;;6.50;;
18265;SDS011;9259;48.194;16.322;2022-07-29T05:02:50;8.95;;;5.57;;
18265;SDS011;9259;48.194;16.322;2022-07-29T05:05:18;11.18;;;5.95;;
18265;SDS011;9259;48.194;16.322;2022-07-29T05:07:46;14.10;;;6.47;;
18265;SDS011;9259;48.194;16.322;2022-07-29T05:10:14;10.63;;;5.93;;
18265;SDS011;9259;48.194;16.322;2022-07-29T05:12:43;11.43;;;6.15;;
18265;SDS011;9259;48.194;16.322;2022-07-29T05:15:11;10.70;;;6.78;;
18265;SDS011;9259;48.194;16.322;2022-07-29T05:17:39;10.07;;;6.00;;
18265;SDS011;9259;48.194;16.322;2022-07-29T05:20:07;9.63;;;5.53;;
18265;SDS011;9259;48.194;16.322;2022-07-29T05:22:36;9.05;;;5.50;;
18265;SDS011;9259;48.194;16.322;2022-07-29T05:25:04;9.25;;;5.45;;
18265;SDS011;9259;48.194;16.322;2022-07-29T05:27:34;7.20;;;4.72;;
18265;SDS011;9259;48.194;16.322;2022-07-29T05:30:05;7.82;;;4.88;;
18265;SDS011;9259;48.194;16.322;2022-07-29T05:32:34;8.85;;;5.35;;
18265;SDS011;9259;48.194;16.322;2022-07-29T05:35:02;11.15;;;5.30;;
18265;SDS011;9259;48.194;16.322;2022-07-29T05:37:30;9.52;;;5.20;;
18265;SDS011;9259;48.194;16.322;2022-07-29T05:39:58;11.57;;;5.38;;
18265;SDS011;9259;48.194;16.322;2022-07-29T05:42:25;9.80;;;4.53;;
18265;SDS011;9259;48.194;16.322;2022-07-29T05:44:55;13.57;;;5.35;;
18265;SDS011;9259;48.194;16.322;2022-07-29T05:47:24;12.43;;;5.25;;
18265;SDS011;9259;48.194;16.322;2022-07-29T05:49:52;11.27;;;5.30;;
18265;SDS011;9259;48.194;16.322;2022-07-29T05:52:20;8.95;;;5.35;;
18265;SDS011;9259;48.194;16.322;2022-07-29T05:54:48;9.50;;;5.00;;
18265;SDS011;9259;48.194;16.322;2022-07-29T05:57:16;7.80;;;4.57;;
18265;SDS011;9259;48.194;16.322;2022-07-29T05:59:45;10.25;;;5.30;;
18265;SDS011;9259;48.194;16.322;2022-07-29T06:02:13;9.07;;;4.90;;
18265;SDS011;9259;48.194;16.322;2022-07-29T06:04:46;8.32;;;4.53;;
18265;SDS011;9259;48.194;16.322;2022-07-29T06:07:15;11.63;;;5.07;;
18265;SDS011;9259;48.194;16.322;2022-07-29T06:09:42;9.15;;;5.10;;
18265;SDS011;9259;48.194;16.322;2022-07-29T06:12:10;11.85;;;4.70;;
18265;SDS011;9259;48.194;16.322;2022-07-29T06:14:38;6.97;;;4.88;;
18265;SDS011;9259;48.194;16.322;2022-07-29T06:17:06;7.32;;;4.63;;
18265;SDS011;9259;48.194;16.322;2022-07-29T06:19:34;8.63;;;4.82;;
18265;SDS011;9259;48.194;16.322;2022-07-29T06:22:04;7.00;;;4.93;;
18265;SDS011;9259;48.194;16.322;2022-07-29T06:24:32;8.73;;;4.93;;
18265;SDS011;9259;48.194;16.322;2022-07-29T06:27:06;9.00;;;5.50;;
18265;SDS011;9259;48.194;16.322;2022-07-29T06:29:35;6.53;;;4.70;;
18265;SDS011;9259;48.194;16.322;2022-07-29T06:32:03;8.73;;;4.70;;
18265;SDS011;9259;48.194;16.322;2022-07-29T06:34:32;7.10;;;4.55;;
18265;SDS011;9259;48.194;16.322;2022-07-29T06:37:00;12.10;;;5.07;;
18265;SDS011;9259;48.194;16.322;2022-07-29T06:39:34;7.75;;;4.72;;
18265;SDS011;9259;48.194;16.322;2022-07-29T06:42:03;7.70;;;4.70;;
18265;SDS011;9259;48.194;16.322;2022-07-29T06:44:31;7.25;;;4.82;;
18265;SDS011;9259;48.194;16.322;2022-07-29T06:47:00;6.00;;;4.72;;
18265;SDS011;9259;48.194;16.322;2022-07-29T06:49:28;9.18;;;5.18;;
18265;SDS011;9259;48.194;16.322;2022-07-29T06:51:56;12.52;;;5.18;;
18265;SDS011;9259;48.194;16.322;2022-07-29T06:54:25;11.73;;;4.78;;
18265;SDS011;9259;48.194;16.322;2022-07-29T06:56:53;30.73;;;5.82;;
18265;SDS011;9259;48.194;16.322;2022-07-29T06:59:21;12.43;;;5.47;;
18265;SDS011;9259;48.194;16.322;2022-07-29T07:01:49;7.63;;;4.75;;
18265;SDS011;9259;48.194;16.322;2022-07-29T07:04:17;10.55;;;4.82;;
18265;SDS011;9259;48.194;16.322;2022-07-29T07:06:44;10.15;;;4.55;;
18265;SDS011;9259;48.194;16.322;2022-07-29T07:09:12;10.75;;;4.57;;
18265;SDS011;9259;48.194;16.322;2022-07-29T07:11:41;6.28;;;4.90;;
18265;SDS011;9259;48.194;16.322;2022-07-29T07:14:09;9.38;;;4.95;;
18265;SDS011;9259;48.194;16.322;2022-07-29T07:16:37;10.90;;;4.90;;
18265;SDS011;9259;48.194;16.322;2022-07-29T07:19:05;8.25;;;4.65;;
18265;SDS011;9259;48.194;16.322;2022-07-29T07:21:32;8.60;;;4.40;;
18265;SDS011;9259;48.194;16.322;2022-07-29T07:24:01;8.90;;;4.70;;
18265;SDS011;9259;48.194;16.322;2022-07-29T07:26:29;8.07;;;4.53;;
18265;SDS011;9259;48.194;16.322;2022-07-29T07:28:59;7.78;;;4.57;;
18265;SDS011;9259;48.194;16.322;2022-07-29T07:31:27;6.95;;;4.75;;
18265;SDS011;9259;48.194;16.322;2022-07-29T07:33:54;9.32;;;4.60;;
18265;SDS011;9259;48.194;16.322;2022-07-29T07:36:23;9.35;;;4.68;;
18265;SDS011;9259;48.194;16.322;2022-07-29T07:38:51;7.90;;;4.60;;
18265;SDS011;9259;48.194;16.322;2022-07-29T07:41:19;9.10;;;4.90;;
18265;SDS011;9259;48.194;16.322;2022-07-29T07:43:47;13.68;;;5.05;;
18265;SDS011;9259;48.194;16.322;2022-07-29T07:46:16;8.48;;;4.72;;
18265;SDS011;9259;48.194;16.322;2022-07-29T07:48:44;6.28;;;4.30;;
18265;SDS011;9259;48.194;16.322;2022-07-29T07:51:15;6.70;;;4.57;;
18265;SDS011;9259;48.194;16.322;2022-07-29T07:53:43;6.80;;;4.63;;
18265;SDS011;9259;48.194;16.322;2022-07-29T07:56:15;8.68;;;4.78;;
18265;SDS011;9259;48.194;16.322;2022-07-29T07:58:43;8.35;;;4.45;;
18265;SDS011;9259;48.194;16.322;2022-07-29T08:01:11;8.60;;;4.95;;
18265;SDS011;9259;48.194;16.322;2022-07-29T08:03:40;7.28;;;4.72;;
18265;SDS011;9259;48.194;16.322;2022-07-29T08:06:08;8.38;;;4.60;;
18265;SDS011;9259;48.194;16.322;2022-07-29T08:08:35;8.40;;;5.38;;
18265;SDS011;9259;48.194;16.322;2022-07-29T08:11:03;12.13;;;4.65;;
18265;SDS011;9259;48.194;16.322;2022-07-29T08:13:36;8.23;;;4.72;;
18265;SDS011;9259;48.194;16.322;2022-07-29T08:16:05;8.52;;;4.35;;
18265;SDS011;9259;48.194;16.322;2022-07-29T08:18:48;8.02;;;4.68;;
18265;SDS011;9259;48.194;16.322;2022-07-29T08:21:16;8.63;;;4.65;;
18265;SDS011;9259;48.194;16.322;2022-07-29T08:23:45;6.72;;;4.32;;
18265;SDS011;9259;48.194;16.322;2022-07-29T08:26:15;7.32;;;4.55;;
18265;SDS011;9259;48.194;16.322;2022-07-29T08:28:44;8.32;;;4.00;;
18265;SDS011;9259;48.194;16.322;2022-07-29T08:31:15;4.50;;;4.10;;
18265;SDS011;9259;48.194;16.322;2022-07-29T08:33:43;7.55;;;4.43;;
18265;SDS011;9259;48.194;16.322;2022-07-29T08:36:13;8.55;;;4.05;;
18265;SDS011;9259;48.194;16.322;2022-07-29T08:38:41;4.95;;;4.25;;
18265;SDS011;9259;48.194;16.322;2022-07-29T08:41:08;6.43;;;3.97;;
18265;SDS011;9259;48.194;16.322;2022-07-29T08:43:36;8.32;;;4.00;;
18265;SDS011;9259;48.194;16.322;2022-07-29T08:46:07;4.93;;;4.28;;
18265;SDS011;9259;48.194;16.322;2022-07-29T08:48:35;6.22;;;4.35;;
18265;SDS011;9259;48.194;16.322;2022-07-29T08:51:04;7.50;;;4.05;;
18265;SDS011;9259;48.194;16.322;2022-07-29T08:53:35;7.75;;;4.18;;
18265;SDS011;9259;48.194;16.322;2022-07-29T08:56:03;5.57;;;4.18;;
18265;SDS011;9259;48.194;16.322;2022-07-29T08:58:33;9.45;;;4.05;;
18265;SDS011;9259;48.194;16.322;2022-07-29T09:01:01;7.57;;;3.42;;
18265;SDS011;9259;48.194;16.322;2022-07-29T09:03:31;8.38;;;4.20;;
18265;SDS011;9259;48.194;16.322;2022-07-29T09:06:01;8.57;;;4.30;;
18265;SDS011;9259;48.194;16.322;2022-07-29T09:08:30;7.90;;;3.92;;
18265;SDS011;9259;48.194;16.322;2022-07-29T09:11:01;6.70;;;4.13;;
18265;SDS011;9259;48.194;16.322;2022-07-29T09:13:29;11.75;;;3.92;;
18265;SDS011;9259;48.194;16.322;2022-07-29T09:15:57;8.45;;;3.60;;
18265;SDS011;9259;48.194;16.322;2022-07-29T09:18:35;5.32;;;3.58;;
18265;SDS011;9259;48.194;16.322;2022-07-29T09:21:05;5.68;;;3.88;;
18265;SDS011;9259;48.194;16.322;2022-07-29T09:24:01;6.00;;;3.72;;
18265;SDS011;9259;48.194;16.322;2022-07-29T09:26:35;5.18;;;3.60;;
18265;SDS011;9259;48.194;16.322;2022-07-29T09:29:09;6.07;;;3.67;;
18265;SDS011;9259;48.194;16.322;2022-07-29T09:31:40;5.03;;;3.25;;
18265;SDS011;9259;48.194;16.322;2022-07-29T09:34:11;6.07;;;3.65;;
18265;SDS011;9259;48.194;16.322;2022-07-29T09:36:43;6.05;;;3.80;;
18265;SDS011;9259;48.194;16.322;2022-07-29T09:39:13;4.53;;;3.55;;
18265;SDS011;9259;48.194;16.322;2022-07-29T09:41:48;7.80;;;3.67;;
18265;SDS011;9259;48.194;16.322;2022-07-29T09:44:18;5.55;;;3.85;;
18265;SDS011;9259;48.194;16.322;2022-07-29T09:46:57;7.05;;;3.80;;
18265;SDS011;9259;48.194;16.322;2022-07-29T09:49:31;5.00;;;3.67;;
18265;SDS011;9259;48.194;16.322;2022-07-29T09:52:00;7.45;;;3.97;;
18265;SDS011;9259;48.194;16.322;2022-07-29T09:54:33;9.13;;;3.67;;
18265;SDS011;9259;48.194;16.322;2022-07-29T09:57:05;13.65;;;3.95;;
18265;SDS011;9259;48.194;16.322;2022-07-29T09:59:39;6.35;;;3.83;;
18265;SDS011;9259;48.194;16.322;2022-07-29T10:02:23;6.20;;;3.78;;
18265;SDS011;9259;48.194;16.322;2022-07-29T10:04:56;7.28;;;3.92;;
18265;SDS011;9259;48.194;16.322;2022-07-29T10:07:25;7.43;;;4.07;;
18265;SDS011;9259;48.194;16.322;2022-07-29T10:09:53;10.57;;;4.40;;
18265;SDS011;9259;48.194;16.322;2022-07-29T10:12:25;5.68;;;4.15;;
18265;SDS011;9259;48.194;16.322;2022-07-29T10:14:53;7.25;;;4.03;;
18265;SDS011;9259;48.194;16.322;2022-07-29T10:17:21;5.57;;;3.90;;
18265;SDS011;9259;48.194;16.322;2022-07-29T10:19:49;5.70;;;3.60;;
18265;SDS011;9259;48.194;16.322;2022-07-29T10:22:17;4.35;;;3.67;;
18265;SDS011;9259;48.194;16.322;2022-07-29T10:24:46;8.10;;;3.92;;
18265;SDS011;9259;48.194;16.322;2022-07-29T10:27:13;6.63;;;4.10;;
18265;SDS011;9259;48.194;16.322;2022-07-29T10:29:43;6.03;;;4.00;;
18265;SDS011;9259;48.194;16.322;2022-07-29T10:32:16;5.57;;;3.80;;
18265;SDS011;9259;48.194;16.322;2022-07-29T10:37:51;5.70;;;4.70;;
18265;SDS011;9259;48.194;16.322;2022-07-29T10:41:01;7.63;;;4.03;;
18265;SDS011;9259;48.194;16.322;2022-07-29T10:43:55;9.85;;;4.40;;
18265;SDS011;9259;48.194;16.322;2022-07-29T10:46:29;8.45;;;4.63;;
18265;SDS011;9259;48.194;16.322;2022-07-29T10:49:06;5.50;;;3.88;;
18265;SDS011;9259;48.194;16.322;2022-07-29T10:54:45;5.35;;;4.07;;
18265;SDS011;9259;48.194;16.322;2022-07-29T10:57:17;13.32;;;4.38;;
18265;SDS011;9259;48.194;16.322;2022-07-29T11:03:01;8.30;;;4.43;;
18265;SDS011;9259;48.194;16.322;2022-07-29T11:05:28;7.78;;;4.35;;
18265;SDS011;9259;48.194;16.322;2022-07-29T11:10:47;14.02;;;4.35;;
18265;SDS011;9259;48.194;16.322;2022-07-29T11:16:19;6.45;;;3.70;;
18265;SDS011;9259;48.194;16.322;2022-07-29T11:21:48;9.07;;;4.30;;
18265;SDS011;9259;48.194;16.322;2022-07-29T11:24:19;5.32;;;3.80;;
18265;SDS011;9259;48.194;16.322;2022-07-29T11:27:08;6.65;;;4.03;;
18265;SDS011;9259;48.194;16.322;2022-07-29T11:29:52;4.82;;;4.18;;
18265;SDS011;9259;48.194;16.322;2022-07-29T11:32:23;7.95;;;4.13;;
18265;SDS011;9259;48.194;16.322;2022-07-29T11:37:41;6.35;;;4.13;;
18265;SDS011;9259;48.194;16.322;2022-07-29T11:40:13;5.65;;;3.90;;
18265;SDS011;9259;48.194;16.322;2022-07-29T11:42:50;7.55;;;4.15;;
18265;SDS011;9259;48.194;16.322;2022-07-29T11:45:22;5.95;;;4.20;;
18265;SDS011;9259;48.194;16.322;2022-07-29T11:48:15;9.00;;;4.30;;
18265;SDS011;9259;48.194;16.322;2022-07-29T11:50:46;7.28;;;3.83;;
18265;SDS011;9259;48.194;16.322;2022-07-29T11:53:15;6.72;;;4.15;;
18265;SDS011;9259;48.194;16.322;2022-07-29T11:55:43;5.10;;;3.40;;
18265;SDS011;9259;48.194;16.322;2022-07-29T11:58:11;8.98;;;3.83;;
18265;SDS011;9259;48.194;16.322;2022-07-29T12:00:39;6.57;;;4.00;;
18265;SDS011;9259;48.194;16.322;2022-07-29T12:03:08;6.03;;;4.22;;
18265;SDS011;9259;48.194;16.322;2022-07-29T12:05:38;8.05;;;3.75;;
18265;SDS011;9259;48.194;16.322;2022-07-29T12:08:14;5.47;;;3.92;;
18265;SDS011;9259;48.194;16.322;2022-07-29T12:10:48;8.90;;;3.40;;
18265;SDS011;9259;48.194;16.322;2022-07-29T12:13:17;5.38;;;3.72;;
18265;SDS011;9259;48.194;16.322;2022-07-29T12:15:54;7.85;;;3.97;;
18265;SDS011;9259;48.194;16.322;2022-07-29T12:18:24;5.78;;;3.60;;
18265;SDS011;9259;48.194;16.322;2022-07-29T12:20:56;6.68;;;3.70;;
18265;SDS011;9259;48.194;16.322;2022-07-29T12:23:27;7.07;;;3.60;;
18265;SDS011;9259;48.194;16.322;2022-07-29T12:25:54;4.85;;;3.42;;
18265;SDS011;9259;48.194;16.322;2022-07-29T12:28:22;4.20;;;3.70;;
18265;SDS011;9259;48.194;16.322;2022-07-29T12:30:50;6.82;;;3.90;;
18265;SDS011;9259;48.194;16.322;2022-07-29T12:33:19;9.15;;;3.83;;
18265;SDS011;9259;48.194;16.322;2022-07-29T12:35:50;5.95;;;4.18;;
18265;SDS011;9259;48.194;16.322;2022-07-29T12:38:21;11.57;;;4.22;;
18265;SDS011;9259;48.194;16.322;2022-07-29T12:40:51;7.90;;;3.90;;
18265;SDS011;9259;48.194;16.322;2022-07-29T12:43:24;8.50;;;4.32;;
18265;SDS011;9259;48.194;16.322;2022-07-29T12:45:53;7.57;;;4.18;;
18265;SDS011;9259;48.194;16.322;2022-07-29T12:48:33;6.85;;;4.03;;
18265;SDS011;9259;48.194;16.322;2022-07-29T12:51:02;6.90;;;4.22;;
18265;SDS011;9259;48.194;16.322;2022-07-29T12:53:31;9.35;;;4.45;;
18265;SDS011;9259;48.194;16.322;2022-07-29T12:56:02;6.45;;;3.97;;
18265;SDS011;9259;48.194;16.322;2022-07-29T12:58:32;7.03;;;4.60;;
18265;SDS011;9259;48.194;16.322;2022-07-29T13:01:09;5.18;;;4.15;;
18265;SDS011;9259;48.194;16.322;2022-07-29T13:03:45;6.95;;;3.63;;
18265;SDS011;9259;48.194;16.322;2022-07-29T13:06:35;10.93;;;4.18;;
18265;SDS011;9259;48.194;16.322;2022-07-29T13:09:06;6.45;;;4.03;;
18265;SDS011;9259;48.194;16.322;2022-07-29T13:11:38;7.32;;;3.90;;
18265;SDS011;9259;48.194;16.322;2022-07-29T13:14:08;6.97;;;4.32;;
18265;SDS011;9259;48.194;16.322;2022-07-29T13:19:34;7.72;;;4.20;;
18265;SDS011;9259;48.194;16.322;2022-07-29T13:22:04;8.07;;;4.28;;
18265;SDS011;9259;48.194;16.322;2022-07-29T13:24:32;8.35;;;4.03;;
18265;SDS011;9259;48.194;16.322;2022-07-29T13:27:01;7.63;;;4.45;;
18265;SDS011;9259;48.194;16.322;2022-07-29T13:29:29;6.32;;;4.30;;
18265;SDS011;9259;48.194;16.322;2022-07-29T13:31:57;6.07;;;4.10;;
18265;SDS011;9259;48.194;16.322;2022-07-29T13:34:25;8.68;;;4.22;;
18265;SDS011;9259;48.194;16.322;2022-07-29T13:36:53;8.98;;;4.15;;
18265;SDS011;9259;48.194;16.322;2022-07-29T13:39:21;6.43;;;4.20;;
18265;SDS011;9259;48.194;16.322;2022-07-29T13:41:49;9.10;;;4.80;;
18265;SDS011;9259;48.194;16.322;2022-07-29T13:44:19;8.00;;;4.63;;
18265;SDS011;9259;48.194;16.322;2022-07-29T13:46:47;10.20;;;5.13;;
18265;SDS011;9259;48.194;16.322;2022-07-29T13:49:15;9.27;;;4.82;;
18265;SDS011;9259;48.194;16.322;2022-07-29T13:51:43;11.50;;;5.65;;
18265;SDS011;9259;48.194;16.322;2022-07-29T13:54:11;11.80;;;5.78;;
18265;SDS011;9259;48.194;16.322;2022-07-29T13:56:39;8.52;;;5.25;;
18265;SDS011;9259;48.194;16.322;2022-07-29T13:59:07;8.63;;;5.35;;
18265;SDS011;9259;48.194;16.322;2022-07-29T14:01:36;11.00;;;5.80;;
18265;SDS011;9259;48.194;16.322;2022-07-29T14:04:07;10.27;;;5.75;;
18265;SDS011;9259;48.194;16.322;2022-07-29T14:06:36;9.00;;;5.75;;
18265;SDS011;9259;48.194;16.322;2022-07-29T14:09:04;9.18;;;6.25;;
18265;SDS011;9259;48.194;16.322;2022-07-29T14:11:34;8.93;;;6.18;;
18265;SDS011;9259;48.194;16.322;2022-07-29T14:14:04;11.07;;;6.78;;
18265;SDS011;9259;48.194;16.322;2022-07-29T14:16:32;12.93;;;7.70;;
18265;SDS011;9259;48.194;16.322;2022-07-29T14:19:01;12.85;;;7.32;;
18265;SDS011;9259;48.194;16.322;2022-07-29T14:21:32;10.13;;;7.72;;
18265;SDS011;9259;48.194;16.322;2022-07-29T14:24:03;9.77;;;7.65;;
18265;SDS011;9259;48.194;16.322;2022-07-29T14:26:31;12.35;;;7.82;;
18265;SDS011;9259;48.194;16.322;2022-07-29T14:28:59;13.13;;;7.82;;
18265;SDS011;9259;48.194;16.322;2022-07-29T14:31:27;12.38;;;8.45;;
18265;SDS011;9259;48.194;16.322;2022-07-29T14:33:55;11.00;;;8.55;;
18265;SDS011;9259;48.194;16.322;2022-07-29T14:36:24;18.80;;;9.45;;
18265;SDS011;9259;48.194;16.322;2022-07-29T14:38:53;14.82;;;9.02;;
18265;SDS011;9259;48.194;16.322;2022-07-29T14:41:21;13.95;;;8.70;;
18265;SDS011;9259;48.194;16.322;2022-07-29T14:43:49;11.73;;;8.75;;
18265;SDS011;9259;48.194;16.322;2022-07-29T14:46:19;15.57;;;9.23;;
18265;SDS011;9259;48.194;16.322;2022-07-29T14:48:51;11.93;;;9.00;;
18265;SDS011;9259;48.194;16.322;2022-07-29T14:51:19;15.57;;;9.68;;
18265;SDS011;9259;48.194;16.322;2022-07-29T14:53:48;12.38;;;8.93;;
18265;SDS011;9259;48.194;16.322;2022-07-29T14:56:16;13.80;;;9.18;;
18265;SDS011;9259;48.194;16.322;2022-07-29T14:58:43;14.57;;;9.93;;
18265;SDS011;9259;48.194;16.322;2022-07-29T15:01:11;13.68;;;8.50;;
18265;SDS011;9259;48.194;16.322;2022-07-29T15:03:39;13.27;;;7.68;;
18265;SDS011;9259;48.194;16.322;2022-07-29T15:06:07;9.73;;;7.30;;
18265;SDS011;9259;48.194;16.322;2022-07-29T15:08:35;10.02;;;7.95;;
18265;SDS011;9259;48.194;16.322;2022-07-29T15:11:04;13.60;;;8.07;;
18265;SDS011;9259;48.194;16.322;2022-07-29T15:13:32;11.80;;;8.30;;
18265;SDS011;9259;48.194;16.322;2022-07-29T15:16:00;14.48;;;8.13;;
18265;SDS011;9259;48.194;16.322;2022-07-29T15:18:28;10.40;;;7.18;;
18265;SDS011;9259;48.194;16.322;2022-07-29T15:20:56;10.77;;;7.47;;
18265;SDS011;9259;48.194;16.322;2022-07-29T15:23:26;10.88;;;7.55;;
18265;SDS011;9259;48.194;16.322;2022-07-29T15:25:54;17.85;;;8.30;;